Radcliff, KY

10:26 PM EST on December 24, 2014 (GMT -0500)
W4VGK Airfield | Change Station
CLOSE
Current Station
Personal Weather Station
Location: Vine Grove, KY
Elevation: 747 ft
Nearby Weather Stations

Elev 747 ft 37.81 °N, 85.97 °W | Updated 3 seconds ago

Overcast
Overcast
36.0 °F
Feels Like 36 °F
N
0.0
Wind Variable Wind from SSW
Gusts 3.0 mph

Today
High -- | Low -- °F
--% Chance of Precip.
Yesterday
High -- | Low -- °F
Precip. -- in
7:57 AM 5:29 PM
Waxing Crescent, 13% visible
Pressure 29.78 in
Visibility 10.0 miles
Clouds Few 1400 ft
Mostly Cloudy 2800 ft
Overcast 3800 ft
Windchill 36 °F
Dew Point 34 °F
Humidity 91%
Rainfall 0.23 in
Snow Depth Not available.
UV 0 out of 12
Pollen .10 out of 12
Air Quality Not available.
Flu Activity Not available.
SPECI KFTK 250313Z AUTO 22010KT 10SM FEW014 BKN028 OVC038 04/02 A2978 RMK AO2 CIG 027V037

More Conditions Fewer Conditions

Pressure 29.78 in
Visibility 10.0 miles
Clouds Few 1400 ft
Mostly Cloudy 2800 ft
Overcast 3800 ft
Windchill 36 °F
Dew Point 34 °F
Humidity 91%
Rainfall 0.23 in
Snow Depth Not available.
UV 0 out of 12
Pollen .10 out of 12
Air Quality Not available.
Flu Activity Not available.
SPECI KFTK 250313Z AUTO 22010KT 10SM FEW014 BKN028 OVC038 04/02 A2978 RMK AO2 CIG 027V037

More Conditions Fewer Conditions

10-Day Weather Forecast

Almanac

Astronomy

Dec. 24, 2014 Rise Set
Actual Time
Civil Twilight
Nautical Twilight
Astronomical Twilight
Moon
Length of Visible Light
Length of Day
Tomorrow will be .
, % of the Moon is Illuminated

Today's Extremes

State Highs State Lows

Community

WunderPhotos

Upload Photos

1,780,221 photos uploaded!

WunderBlogs® & News

Nearby

Air Quality

  Air Quality AQ Index Pollutant
Not available.

Snow Depth

Station Depth Elevation

Earthquake Activity

City Distance Mag. Time & Date
Minimum magnitude displayed is 2.5.

Coastal Water Temperatures

Place Temperature

Nearby Weather Stations